Time;durP1;ratioP1;P1;durP2;ratioP2;P2;SDS_P1;SDS_P2;PMS_P1;PMS_P2;Temp;Humidity;BMP_temperature;BMP_pressure;BME280_temperature;BME280_humidity;BME280_pressure;Samples;Min_cycle;Max_cycle;Signal;HPM_P1;HPM_P2
2021/03/19 00:01:08;;;;;;;25.87;16.63;;;;;;;4.19;67.07;100310.16;4870673;28;98564;-77
2021/03/19 00:03:34;;;;;;;25.77;16.40;;;;;;;4.16;67.19;100299.81;4869772;28;97053;-73
2021/03/19 00:06:00;;;;;;;22.40;15.83;;;;;;;4.03;67.02;100291.22;4866543;28;97266;-73
2021/03/19 00:08:26;;;;;;;21.27;14.37;;;;;;;4.07;67.04;100302.44;4840267;28;101454;-73
2021/03/19 00:10:52;;;;;;;18.53;13.87;;;;;;;4.14;66.80;100303.28;4871080;28;98044;-74
2021/03/19 00:13:18;;;;;;;20.10;13.83;;;;;;;4.13;66.83;100304.13;4855815;28;97120;-73
2021/03/19 00:15:44;;;;;;;19.17;12.73;;;;;;;4.14;66.85;100300.69;4855494;28;97158;-78
2021/03/19 00:18:09;;;;;;;17.90;12.80;;;;;;;4.15;66.67;100297.19;4856720;28;101851;-74
2021/03/19 00:20:38;;;;;;;19.13;13.00;;;;;;;4.14;66.78;100292.88;4892382;28;97821;-73
2021/03/19 00:23:05;;;;;;;18.20;13.50;;;;;;;4.14;67.03;100304.13;4890316;28;96692;-73
2021/03/19 00:25:31;;;;;;;21.10;13.53;;;;;;;4.13;67.00;100305.03;4859406;28;97291;-73
2021/03/19 00:27:57;;;;;;;21.63;14.70;;;;;;;4.13;66.84;100298.94;4873447;28;101245;-74
2021/03/19 00:30:23;;;;;;;20.77;15.20;;;;;;;4.10;67.28;100302.41;4892274;28;97841;-74
2021/03/19 00:32:49;;;;;;;25.97;15.97;;;;;;;4.13;66.98;100297.22;4856732;28;97285;-74
2021/03/19 00:35:15;;;;;;;24.00;15.60;;;;;;;4.20;66.68;100296.28;4845428;28;97313;-73
2021/03/19 00:37:41;;;;;;;23.57;15.37;;;;;;;4.17;66.83;100295.47;4854645;28;101453;-74
2021/03/19 00:40:09;;;;;;;22.97;14.60;;;;;;;4.23;66.58;100298.88;4854797;28;100789;-73
2021/03/19 00:42:35;;;;;;;25.93;17.33;;;;;;;4.20;66.66;100296.28;4840083;28;97161;-73
2021/03/19 00:45:02;;;;;;;26.27;15.90;;;;;;;4.22;66.48;100286.75;4839473;28;97222;-73
2021/03/19 00:47:29;;;;;;;25.30;17.23;;;;;;;4.23;66.23;100295.41;4839864;28;101168;-73
2021/03/19 00:49:55;;;;;;;23.77;16.43;;;;;;;4.20;66.75;100293.69;4839091;28;101644;-73
2021/03/19 00:52:20;;;;;;;29.23;18.20;;;;;;;4.16;66.93;100281.63;4855517;28;97408;-73
2021/03/19 00:54:46;;;;;;;26.23;18.20;;;;;;;4.19;66.92;100285.91;4855681;28;97289;-79
2021/03/19 00:57:11;;;;;;;29.30;19.63;;;;;;;4.14;66.72;100283.34;4874037;28;98525;-73
2021/03/19 00:59:37;;;;;;;27.50;18.33;;;;;;;4.12;67.04;100284.25;4867387;28;101053;-73
2021/03/19 01:02:02;;;;;;;30.97;20.67;;;;;;;4.00;67.25;100280.00;4876395;28;97156;-75
2021/03/19 01:04:28;;;;;;;29.17;19.57;;;;;;;4.03;67.03;100286.03;4877613;28;97056;-72
2021/03/19 01:06:54;;;;;;;31.80;19.80;;;;;;;3.99;67.06;100276.56;4876342;28;100825;-72
2021/03/19 01:09:19;;;;;;;27.57;19.50;;;;;;;3.93;67.28;100281.78;4893621;28;97303;-73
2021/03/19 01:11:45;;;;;;;26.77;18.73;;;;;;;3.91;67.20;100274.88;4862910;28;96781;-79
2021/03/19 01:14:12;;;;;;;28.73;19.70;;;;;;;3.90;67.06;100273.13;4858361;28;97141;-75
2021/03/19 01:16:37;;;;;;;28.73;19.33;;;;;;;3.81;67.59;100272.38;4872274;28;101406;-75
2021/03/19 01:19:03;;;;;;;27.33;19.27;;;;;;;3.76;67.34;100274.13;4877661;28;97544;-74
2021/03/19 01:21:29;;;;;;;27.63;19.03;;;;;;;3.69;67.55;100275.03;4877270;28;96883;-74
2021/03/19 01:23:54;;;;;;;29.03;18.80;;;;;;;3.59;67.70;100273.38;4860496;28;96835;-75
2021/03/19 01:26:20;;;;;;;25.73;18.20;;;;;;;3.53;67.71;100270.81;4892460;28;98226;-74
2021/03/19 01:28:46;;;;;;;27.17;18.67;;;;;;;3.56;67.64;100284.63;4877507;28;98395;-80
2021/03/19 01:31:13;;;;;;;27.07;17.93;;;;;;;3.60;67.44;100280.28;4861168;28;97516;-74
2021/03/19 01:33:38;;;;;;;30.07;17.57;;;;;;;3.55;67.44;100282.91;4877382;28;96855;-75
2021/03/19 01:36:06;;;;;;;25.17;16.80;;;;;;;3.55;67.24;100285.50;4876140;28;101082;-74
2021/03/19 01:38:36;;;;;;;26.13;17.30;;;;;;;3.45;67.71;100282.97;4877485;28;101468;-74
2021/03/19 01:41:03;;;;;;;25.77;17.37;;;;;;;3.48;67.48;100277.75;4877027;28;96983;-74
2021/03/19 01:44:04;;;;;;;25.97;16.67;;;;;;;3.47;67.42;100286.44;4877893;28;96949;-74
2021/03/19 01:47:07;;;;;;;24.07;17.10;;;;;;;3.42;67.23;100288.19;4834631;29;98498;-75
2021/03/19 01:50:10;;;;;;;27.27;17.53;;;;;;;3.41;67.36;100282.13;4893234;28;98498;-74
2021/03/19 01:53:12;;;;;;;26.77;16.40;;;;;;;3.40;67.38;100286.47;4894042;28;97153;-74
2021/03/19 01:56:15;;;;;;;25.97;17.47;;;;;;;3.33;67.56;100289.94;4863903;28;96766;-74
2021/03/19 01:59:18;;;;;;;28.70;17.67;;;;;;;3.24;67.92;100284.81;4871898;28;101415;-74
2021/03/19 02:02:22;;;;;;;27.23;16.77;;;;;;;3.30;67.89;100284.78;4876494;28;101753;-75
2021/03/19 02:05:24;;;;;;;26.37;17.00;;;;;;;3.24;67.98;100283.94;4892436;28;96756;-79
2021/03/19 02:08:28;;;;;;;30.63;20.10;;;;;;;2.98;68.46;100278.88;4875705;28;97301;-79
2021/03/19 02:11:31;;;;;;;35.33;19.97;;;;;;;2.92;68.97;100279.75;4866644;28;101327;-73
2021/03/19 02:14:34;;;;;;;34.17;20.50;;;;;;;2.99;68.43;100286.63;4871983;28;100960;-74
2021/03/19 02:17:37;;;;;;;35.07;20.97;;;;;;;3.14;68.21;100276.22;4879021;28;96972;-74
2021/03/19 02:20:40;;;;;;;35.83;22.13;;;;;;;3.16;68.37;100279.63;4891981;28;97059;-73
2021/03/19 02:23:43;;;;;;;42.67;25.60;;;;;;;2.88;68.63;100284.09;4874977;28;101177;-77
2021/03/19 02:26:46;;;;;;;46.37;27.47;;;;;;;2.65;69.22;100281.56;4891038;28;100613;-74
2021/03/19 02:29:49;;;;;;;47.13;26.93;;;;;;;2.61;69.58;100286.75;4893621;28;96588;-73
2021/03/19 02:32:17;;;;;;;49.57;28.33;;;;;;;2.66;69.43;100277.25;4876128;28;96941;-74
2021/03/19 02:34:58;;;;;;;46.73;26.93;;;;;;;2.64;69.17;100278.97;4892217;28;98145;-74
2021/03/19 02:37:30;;;;;;;49.55;29.90;;;;;;;2.66;68.97;100285.00;4875727;28;101502;-73
2021/03/19 02:39:55;;;;;;;49.20;30.63;;;;;;;2.55;69.44;100281.56;4859786;28;96662;-74
2021/03/19 02:42:26;;;;;;;52.50;29.53;;;;;;;2.31;70.64;100287.66;4876525;28;96917;-74
2021/03/19 02:44:52;;;;;;;53.43;29.73;;;;;;;2.30;70.05;100281.63;4875357;28;101595;-78
2021/03/19 02:47:18;;;;;;;53.23;31.17;;;;;;;2.25;70.37;100283.34;4875867;28;98273;-74
2021/03/19 02:49:44;;;;;;;51.40;30.53;;;;;;;2.18;70.65;100282.50;4859863;28;97755;-74
2021/03/19 02:52:09;;;;;;;48.87;29.63;;;;;;;2.07;70.77;100285.97;4891023;28;97404;-75
2021/03/19 02:54:35;;;;;;;48.60;30.00;;;;;;;2.13;70.46;100283.34;4860860;28;101010;-74
2021/03/19 02:57:01;;;;;;;49.50;29.20;;;;;;;2.06;70.70;100290.25;4848751;28;101346;-74
2021/03/19 02:59:26;;;;;;;49.57;29.80;;;;;;;1.95;70.52;100289.38;4857005;28;96945;-74
2021/03/19 03:01:52;;;;;;;51.10;29.97;;;;;;;1.89;70.73;100289.38;4854599;28;97380;-82
2021/03/19 03:04:20;;;;;;;57.77;32.63;;;;;;;1.86;70.27;100300.59;4859510;28;101485;-74
2021/03/19 03:06:52;;;;;;;54.03;31.17;;;;;;;1.77;70.58;100293.66;4878337;28;98387;-74
2021/03/19 03:09:27;;;;;;;61.40;33.08;;;;;;;1.64;70.97;100291.94;4841321;28;96785;-74
2021/03/19 03:11:53;;;;;;;64.73;33.30;;;;;;;1.51;71.28;100291.06;4856543;28;97386;-82
2021/03/19 03:14:22;;;;;;;60.17;32.70;;;;;;;1.61;71.48;100296.25;4840661;28;101267;-74
2021/03/19 03:16:48;;;;;;;70.53;33.90;;;;;;;1.63;70.79;100289.34;4839399;28;101420;-73
2021/03/19 03:19:18;;;;;;;61.03;34.17;;;;;;;1.67;71.20;100298.84;4854810;28;97141;-75
2021/03/19 03:21:44;;;;;;;62.83;32.83;;;;;;;1.74;70.80;100300.56;4839485;28;97152;-74
2021/03/19 03:24:11;;;;;;;71.30;35.30;;;;;;;1.82;71.27;100301.44;4838847;28;101295;-74
2021/03/19 03:26:37;;;;;;;66.27;35.40;;;;;;;1.78;71.19;100299.75;4870451;28;101084;-74
2021/03/19 03:29:04;;;;;;;63.07;35.70;;;;;;;1.86;70.43;100300.59;4854886;28;97163;-74
2021/03/19 03:31:30;;;;;;;68.80;36.57;;;;;;;1.83;70.00;100302.31;4855814;28;96952;-73
2021/03/19 03:33:55;;;;;;;68.43;37.23;;;;;;;1.64;71.00;100306.59;4870316;28;98195;-74
2021/03/19 03:36:22;;;;;;;62.47;33.63;;;;;;;1.69;70.75;100310.94;4854669;28;101807;-75
2021/03/19 03:38:48;;;;;;;71.87;37.17;;;;;;;1.61;70.86;100307.47;4855014;28;97225;-74
2021/03/19 03:41:17;;;;;;;66.00;35.03;;;;;;;1.66;70.79;100310.03;4854236;28;97617;-73
2021/03/19 03:43:42;;;;;;;74.80;36.93;;;;;;;1.44;70.38;100307.41;4839038;28;100417;-74
2021/03/19 03:46:12;;;;;;;67.73;36.60;;;;;;;1.51;70.31;100314.34;4888608;28;97824;-75
2021/03/19 03:48:38;;;;;;;72.23;38.30;;;;;;;1.61;69.57;100315.22;4858107;28;96755;-74
2021/03/19 03:51:06;;;;;;;66.87;37.00;;;;;;;1.57;70.19;100311.78;4873366;28;96909;-73
2021/03/19 03:53:32;;;;;;;73.17;37.27;;;;;;;1.62;69.48;100324.72;4857536;28;101479;-74
2021/03/19 03:55:58;;;;;;;72.50;38.47;;;;;;;1.68;69.98;100319.53;4870216;28;97485;-73
2021/03/19 03:58:24;;;;;;;75.70;38.67;;;;;;;1.79;69.23;100315.25;4854682;28;97280;-73
2021/03/19 04:00:50;;;;;;;68.70;36.67;;;;;;;1.79;69.44;100322.16;4854250;28;97083;-73
2021/03/19 04:03:15;;;;;;;70.43;38.10;;;;;;;1.66;69.42;100328.16;4837901;28;101621;-74
2021/03/19 04:05:44;;;;;;;70.80;37.33;;;;;;;1.72;69.54;100323.88;4844328;28;101273;-74
2021/03/19 04:08:11;;;;;;;72.97;39.13;;;;;;;1.78;69.33;100323.88;4888880;28;97273;-74
2021/03/19 04:10:38;;;;;;;73.60;39.70;;;;;;;1.85;69.31;100334.25;4873589;28;96848;-74
2021/03/19 04:13:04;;;;;;;72.77;38.83;;;;;;;1.80;69.16;100336.81;4872907;28;101661;-77
2021/03/19 04:15:30;;;;;;;74.10;38.77;;;;;;;1.84;68.98;100335.13;4854219;28;101507;-74
2021/03/19 04:17:58;;;;;;;75.63;40.73;;;;;;;1.96;69.49;100335.13;4827989;28;788117;-78
2021/03/19 04:20:25;;;;;;;80.30;41.23;;;;;;;2.01;68.73;100334.28;4856656;28;96973;-74
2021/03/19 04:22:50;;;;;;;76.93;40.40;;;;;;;1.94;69.33;100334.25;4855712;28;101500;-74
2021/03/19 04:25:17;;;;;;;77.87;41.30;;;;;;;1.99;68.76;100330.81;4855297;28;101845;-74
2021/03/19 04:27:55;;;;;;;73.80;39.67;;;;;;;2.00;68.15;100329.94;4884146;28;97365;-75
2021/03/19 04:30:30;;;;;;;73.63;40.33;;;;;;;2.10;68.90;100329.97;4874950;28;97615;-73
2021/03/19 04:32:56;;;;;;;72.93;39.93;;;;;;;2.17;68.34;100329.09;4858681;28;100892;-81
2021/03/19 04:35:24;;;;;;;73.67;40.47;;;;;;;2.11;68.88;100322.19;4884479;28;97902;-75
2021/03/19 04:37:52;;;;;;;70.63;39.20;;;;;;;2.10;68.24;100329.97;4858995;28;96926;-73
2021/03/19 04:40:18;;;;;;;80.87;41.90;;;;;;;2.10;68.23;100322.22;4858680;28;97000;-74
2021/03/19 04:42:44;;;;;;;77.23;40.17;;;;;;;2.15;67.84;100320.47;4870787;28;98259;-74
2021/03/19 04:45:12;;;;;;;74.37;41.33;;;;;;;2.14;68.34;100329.97;4859161;28;98093;-73
2021/03/19 04:47:38;;;;;;;76.13;41.53;;;;;;;2.13;67.98;100329.97;4877814;28;96712;-74
2021/03/19 04:50:06;;;;;;;77.27;39.10;;;;;;;2.12;68.52;100329.09;4877555;28;96926;-73
2021/03/19 04:52:32;;;;;;;81.23;40.57;;;;;;;2.15;68.06;100336.00;4893515;28;97995;-73
2021/03/19 04:55:00;;;;;;;74.73;39.77;;;;;;;2.15;68.07;100333.41;4863547;28;100922;-74
2021/03/19 04:57:26;;;;;;;77.83;42.07;;;;;;;2.17;68.03;100329.09;4876344;28;97315;-74
2021/03/19 04:59:52;;;;;;;76.03;40.43;;;;;;;2.16;67.90;100335.16;4878047;28;97597;-74
2021/03/19 05:02:18;;;;;;;71.53;38.70;;;;;;;2.25;67.73;100329.97;4875476;28;98579;-74
2021/03/19 05:04:43;;;;;;;81.43;40.73;;;;;;;2.27;67.62;100336.03;4843496;28;99521;-74
2021/03/19 05:07:09;;;;;;;74.53;39.33;;;;;;;2.21;67.72;100331.72;4858044;28;97178;-74
2021/03/19 05:09:36;;;;;;;72.17;39.33;;;;;;;2.24;68.09;100339.47;4859203;28;97183;-74
2021/03/19 05:12:04;;;;;;;74.83;39.20;;;;;;;2.24;67.67;100334.28;4857935;28;98171;-73
2021/03/19 05:14:29;;;;;;;81.07;40.17;;;;;;;2.23;67.41;100337.72;4858493;28;100693;-74
2021/03/19 05:16:55;;;;;;;77.80;40.40;;;;;;;2.23;67.56;100336.88;4857057;28;96938;-81
2021/03/19 05:19:21;;;;;;;80.10;40.63;;;;;;;2.15;67.69;100346.34;4869262;28;97255;-74
2021/03/19 05:21:47;;;;;;;69.10;38.47;;;;;;;2.19;67.51;100343.78;4877070;28;102294;-74
2021/03/19 05:24:14;;;;;;;78.60;40.00;;;;;;;2.21;66.85;100346.34;4876689;28;97771;-74
2021/03/19 05:26:40;;;;;;;73.80;41.33;;;;;;;2.31;66.95;100342.91;4861680;28;96807;-74
2021/03/19 05:29:10;;;;;;;83.23;42.10;;;;;;;2.29;67.25;100344.63;4892716;28;97551;-80
2021/03/19 05:31:36;;;;;;;82.10;43.67;;;;;;;2.34;66.90;100349.84;4877264;28;101928;-79
2021/03/19 05:34:02;;;;;;;82.83;42.43;;;;;;;2.50;66.36;100346.34;4865343;28;101221;-74
2021/03/19 05:36:29;;;;;;;88.87;43.47;;;;;;;2.53;66.13;100354.16;4842163;28;98220;-73
2021/03/19 05:38:55;;;;;;;85.47;43.47;;;;;;;2.56;66.55;100353.25;4842372;28;97050;-80
2021/03/19 05:41:22;;;;;;;81.83;40.77;;;;;;;2.58;65.98;100351.53;4841498;28;101024;-74
2021/03/19 05:43:50;;;;;;;84.77;41.37;;;;;;;2.63;66.24;100353.28;4858041;28;98000;-74
2021/03/19 05:46:21;;;;;;;76.60;41.40;;;;;;;2.73;65.63;100356.69;4880612;28;97938;-74
2021/03/19 05:49:08;;;;;;;79.60;41.43;;;;;;;2.80;66.05;100355.84;4869287;28;98044;-75
2021/03/19 05:51:46;;;;;;;73.43;36.90;;;;;;;2.94;65.68;100353.22;4870527;28;98118;-73
2021/03/19 05:54:52;;;;;;;65.20;37.00;;;;;;;3.09;65.02;100353.19;4854473;28;101276;-74
2021/03/19 05:57:30;;;;;;;68.90;35.33;;;;;;;3.23;64.94;100345.34;4872861;28;96892;-74
2021/03/19 05:59:59;;;;;;;69.53;37.30;;;;;;;3.42;64.08;100337.50;4859223;28;97275;-80
2021/03/19 06:02:31;;;;;;;67.20;35.27;;;;;;;3.44;64.00;100340.94;4842320;28;101308;-73
2021/03/19 06:04:59;;;;;;;;;;;;;;;3.63;63.35;100343.41;4870268;28;98378;-80
2021/03/19 06:07:42;;;;;;;63.50;34.93;;;;;;;3.94;62.69;100345.00;4858987;28;97189;-74
2021/03/19 06:10:21;;;;;;;61.43;34.00;;;;;;;4.25;61.60;100356.03;4854712;28;97635;-74
2021/03/19 06:12:53;;;;;;;62.53;34.67;;;;;;;4.07;62.13;100357.88;4836034;28;101675;-73
2021/03/19 06:15:46;;;;;;;61.42;34.45;;;;;;;4.03;62.00;100357.91;4861042;28;98014;-73
2021/03/19 06:18:36;;;;;;;62.97;35.90;;;;;;;4.12;61.95;100352.66;4857909;28;97539;-73
2021/03/19 06:21:07;;;;;;;66.80;35.30;;;;;;;4.31;61.71;100364.63;4892742;28;96850;-74
2021/03/19 06:23:33;;;;;;;61.87;35.67;;;;;;;4.43;61.16;100365.41;4876830;28;98469;-74
2021/03/19 06:26:06;;;;;;;61.77;33.40;;;;;;;4.45;61.05;100367.13;4853153;28;100384;-79
2021/03/19 06:28:35;;;;;;;59.20;34.37;;;;;;;4.40;61.08;100366.31;4850524;28;97416;-76
2021/03/19 06:31:24;;;;;;;68.40;34.57;;;;;;;4.44;60.92;100365.38;4856189;28;97147;-80
2021/03/19 06:34:05;;;;;;;64.27;35.47;;;;;;;4.40;60.72;100370.66;4879065;28;101274;-73
2021/03/19 06:36:31;;;;;;;62.73;34.47;;;;;;;4.24;61.31;100372.47;4866749;28;101531;-74
2021/03/19 06:39:07;;;;;;;66.03;37.10;;;;;;;4.41;61.01;100373.22;4852319;28;96929;-76
2021/03/19 06:41:38;;;;;;;74.70;41.43;;;;;;;4.46;61.53;100366.25;4853777;28;96953;-73
2021/03/19 06:44:18;;;;;;;73.27;43.63;;;;;;;4.44;60.95;100370.59;4857326;28;101182;-73
2021/03/19 06:46:53;;;;;;;78.70;46.43;;;;;;;4.71;60.71;100372.09;4857324;28;101178;-73
2021/03/19 06:49:22;;;;;;;80.07;45.50;;;;;;;4.73;60.99;100374.69;4856404;28;96818;-74
2021/03/19 06:51:51;;;;;;;80.47;46.60;;;;;;;4.44;61.46;100377.53;4857091;28;96859;-73
2021/03/19 06:54:22;;;;;;;83.87;45.73;;;;;;;4.29;62.33;100378.50;4836621;28;101178;-73
2021/03/19 06:57:09;;;;;;;90.93;46.53;;;;;;;4.05;62.07;100382.16;4867385;28;101308;-74
2021/03/19 06:59:44;;;;;;;91.10;47.23;;;;;;;3.94;62.49;100392.59;4863841;28;97301;-76
2021/03/19 07:02:25;;;;;;;86.93;48.40;;;;;;;4.34;61.69;100386.28;4851921;28;97689;-73
2021/03/19 07:05:02;;;;;;;91.00;47.80;;;;;;;4.36;61.55;100389.72;4868742;28;98158;-73
2021/03/19 07:07:54;;;;;;;92.57;48.57;;;;;;;4.22;61.97;100392.44;4852196;28;98405;-74
2021/03/19 07:10:29;;;;;;;89.63;48.78;;;;;;;4.23;61.67;100400.22;4867992;28;96971;-73
2021/03/19 07:12:58;;;;;;;87.67;47.60;;;;;;;4.06;62.03;100392.50;4864050;28;97440;-75
2021/03/19 07:15:27;;;;;;;87.97;45.30;;;;;;;4.00;62.49;100400.34;4893523;28;101930;-73
2021/03/19 07:17:55;;;;;;;82.77;45.20;;;;;;;3.88;62.66;100392.63;4866070;28;101353;-74
2021/03/19 07:20:37;;;;;;;81.97;43.70;;;;;;;3.97;62.66;100402.09;4854221;28;97302;-73
2021/03/19 07:23:13;;;;;;;77.30;40.93;;;;;;;3.71;63.50;100397.91;4872750;28;97907;-73
2021/03/19 07:25:44;;;;;;;83.00;42.73;;;;;;;3.68;63.55;100410.06;4863187;28;97432;-74
2021/03/19 07:28:47;;;;;;;79.77;40.63;;;;;;;3.81;63.41;100411.69;4870045;28;98056;-73
2021/03/19 07:31:21;;;;;;;81.80;42.27;;;;;;;3.70;63.96;100414.38;4869040;28;96767;-75
2021/03/19 07:34:14;;;;;;;76.90;40.27;;;;;;;3.89;63.49;100416.88;4871032;28;96769;-74
2021/03/19 07:36:58;;;;;;;81.90;41.90;;;;;;;3.94;63.48;100417.72;4871279;28;98713;-73
2021/03/19 07:39:32;;;;;;;82.00;42.67;;;;;;;3.82;63.31;100418.66;4887730;28;101587;-73
2021/03/19 07:41:58;;;;;;;76.47;41.27;;;;;;;3.88;62.81;100418.59;4891126;28;97059;-73
2021/03/19 07:44:35;;;;;;;74.23;39.53;;;;;;;3.80;62.82;100420.38;4873883;28;97590;-73
2021/03/19 07:47:14;;;;;;;72.13;40.37;;;;;;;3.84;62.91;100420.38;4836564;29;101729;-79
2021/03/19 07:49:48;;;;;;;73.70;40.17;;;;;;;3.88;62.45;100420.34;4878708;28;100008;-77
2021/03/19 07:52:20;;;;;;;75.33;39.63;;;;;;;3.89;62.82;100428.13;4890316;28;96830;-73
2021/03/19 07:55:00;;;;;;;81.90;42.15;;;;;;;3.67;63.25;100424.78;4852450;28;97586;-73
2021/03/19 07:57:27;;;;;;;83.40;42.10;;;;;;;3.89;63.00;100424.66;4872095;28;99032;-75
2021/03/19 07:59:58;;;;;;;84.30;44.33;;;;;;;4.03;63.17;100423.72;4852486;28;101392;-75
2021/03/19 08:02:42;;;;;;;72.90;41.80;;;;;;;4.15;62.88;100425.38;4844554;28;100026;-76
2021/03/19 08:05:14;;;;;;;70.87;40.93;;;;;;;4.11;62.84;100428.00;4863613;28;97611;-78
2021/03/19 08:07:47;;;;;;;69.95;39.40;;;;;;;4.33;61.98;100429.59;4866452;28;101752;-77
2021/03/19 08:10:54;;;;;;;78.53;43.47;;;;;;;4.48;61.38;100437.28;4854446;28;101371;-77
2021/03/19 08:13:35;;;;;;;73.33;39.93;;;;;;;4.69;61.20;100440.59;4841257;28;97718;-76
2021/03/19 08:16:16;;;;;;;74.23;42.70;;;;;;;4.94;60.33;100434.28;4868984;28;97451;-79
2021/03/19 08:19:00;;;;;;;75.07;41.33;;;;;;;4.80;61.10;100437.91;4855344;28;98584;-75
2021/03/19 08:21:38;;;;;;;70.23;40.57;;;;;;;5.09;59.74;100438.53;4872072;28;97770;-74
2021/03/19 08:24:56;;;;;;;72.83;39.73;;;;;;;5.59;58.15;100436.25;4868843;28;97074;-74
2021/03/19 08:27:34;;;;;;;70.47;38.83;;;;;;;7.98;53.37;100429.69;4816085;28;97048;-74
2021/03/19 08:30:13;;;;;;;67.73;38.50;;;;;;;10.44;48.04;100429.28;4862397;28;101461;-74
2021/03/19 08:32:58;;;;;;;67.07;40.97;;;;;;;12.50;43.78;100421.94;4851079;28;101285;-74
2021/03/19 08:35:34;;;;;;;67.03;38.45;;;;;;;14.65;41.24;100416.72;4868438;28;98218;-75
2021/03/19 08:38:06;;;;;;;62.30;39.50;;;;;;;14.97;39.59;100418.69;4852430;28;97489;-73
2021/03/19 08:40:46;;;;;;;58.67;39.10;;;;;;;16.13;36.83;100419.63;4844609;28;101424;-73
2021/03/19 08:43:34;;;;;;;61.47;38.92;;;;;;;16.18;36.12;100409.66;4849358;28;98129;-74
2021/03/19 08:46:11;;;;;;;55.92;37.92;;;;;;;13.30;40.20;100425.63;4845689;28;97415;-76
2021/03/19 08:48:50;;;;;;;60.72;37.38;;;;;;;13.46;40.01;100419.66;4864978;28;96779;-73
2021/03/19 08:51:23;;;;;;;55.15;37.15;;;;;;;14.34;38.72;100420.00;4863288;28;97306;-73
2021/03/19 08:54:08;;;;;;;58.30;37.97;;;;;;;13.91;39.56;100424.66;4851696;28;100151;-75
2021/03/19 08:56:34;;;;;;;60.70;38.70;;;;;;;12.93;41.18;100428.94;4866509;28;97135;-74
2021/03/19 08:58:59;;;;;;;66.50;38.45;;;;;;;12.23;41.36;100425.59;4880166;28;97460;-73
2021/03/19 09:01:50;;;;;;;56.17;35.55;;;;;;;12.17;42.27;100439.00;4881703;28;98046;-73
2021/03/19 09:04:16;;;;;;;63.05;40.53;;;;;;;12.32;42.33;100432.28;4844909;28;101596;-73
2021/03/19 09:07:21;;;;;;;56.53;37.92;;;;;;;13.41;41.05;100419.88;4868075;28;97316;-74
2021/03/19 09:09:48;;;;;;;52.97;34.03;;;;;;;13.00;40.73;100421.63;4847658;28;97492;-72
2021/03/19 09:12:19;;;;;;;58.03;34.58;;;;;;;12.90;40.73;100416.75;4852000;28;101578;-73
2021/03/19 09:14:51;;;;;;;56.22;33.65;;;;;;;13.59;39.32;100410.28;4840302;29;101370;-73
2021/03/19 09:17:48;;;;;;;48.70;31.33;;;;;;;13.04;40.59;100416.16;4864826;28;98085;-72
2021/03/19 09:20:41;;;;;;;45.60;29.70;;;;;;;13.05;40.28;100409.09;4849188;28;97410;-72
2021/03/19 09:23:10;;;;;;;56.65;30.15;;;;;;;14.02;39.32;100416.22;4865493;28;98308;-75
2021/03/19 09:26:06;;;;;;;41.38;28.13;;;;;;;13.14;40.47;100417.47;4889867;28;101309;-74
2021/03/19 09:28:50;;;;;;;46.03;27.42;;;;;;;12.17;42.28;100420.59;4867614;28;96775;-73
2021/03/19 09:31:24;;;;;;;37.85;25.60;;;;;;;11.61;41.83;100418.31;4860021;28;97386;-75
2021/03/19 09:33:51;;;;;;;44.08;27.60;;;;;;;11.37;41.68;100414.78;4866986;28;98912;-73
2021/03/19 09:36:56;;;;;;;42.85;26.45;;;;;;;10.78;42.33;100420.34;4854751;28;101334;-73
2021/03/19 09:39:59;;;;;;;49.83;27.75;;;;;;;10.23;43.69;100428.16;4870240;28;96865;-75
2021/03/19 09:42:24;;;;;;;50.58;28.83;;;;;;;9.93;44.79;100428.19;4862533;28;97312;-75
2021/03/19 09:45:10;;;;;;;47.53;28.00;;;;;;;9.62;44.69;100435.22;4854606;28;101141;-74
2021/03/19 09:47:42;;;;;;;41.20;25.73;;;;;;;9.45;45.47;100438.31;4859653;28;101664;-76
2021/03/19 09:50:13;;;;;;;47.83;28.50;;;;;;;9.14;45.58;100435.69;4853065;28;97538;-74
2021/03/19 09:52:51;;;;;;;49.75;26.75;;;;;;;8.64;47.49;100437.78;4869844;28;96873;-74
2021/03/19 09:55:20;;;;;;;40.55;24.92;;;;;;;8.65;47.20;100444.75;4835693;28;101430;-74
2021/03/19 09:57:46;;;;;;;44.33;24.85;;;;;;;8.38;47.66;100449.72;4847938;28;101771;-74
2021/03/19 10:00:27;;;;;;;40.13;25.08;;;;;;;8.09;48.00;100438.16;4864034;28;97451;-74
2021/03/19 10:02:53;;;;;;;40.65;23.75;;;;;;;8.01;48.47;100447.91;4838321;28;96799;-74
2021/03/19 10:05:22;;;;;;;44.75;24.15;;;;;;;7.93;48.78;100442.84;4865669;28;98031;-75
2021/03/19 10:07:59;;;;;;;36.25;21.33;;;;;;;7.88;48.60;100438.59;4866985;28;97871;-74
2021/03/19 10:10:27;;;;;;;35.15;19.50;;;;;;;7.96;48.37;100443.66;4862480;28;96958;-74
2021/03/19 10:13:13;;;;;;;35.95;17.52;;;;;;;8.00;48.43;100427.00;4868951;28;97002;-74
2021/03/19 10:15:38;;;;;;;33.67;18.05;;;;;;;7.97;48.29;100434.91;4850774;28;97672;-74
2021/03/19 10:18:07;;;;;;;26.92;15.60;;;;;;;7.97;47.64;100438.44;4870651;28;97947;-80
2021/03/19 10:20:40;;;;;;;26.33;15.82;;;;;;;8.04;46.79;100426.06;4851686;28;97339;-74
2021/03/19 10:23:27;;;;;;;36.88;18.27;;;;;;;8.03;47.89;100429.56;4848278;28;97447;-74
2021/03/19 10:26:04;;;;;;;35.38;19.63;;;;;;;8.04;48.82;100432.16;4868305;28;98576;-74
2021/03/19 10:28:30;;;;;;;34.67;17.65;;;;;;;7.90;47.53;100435.06;4853700;28;97508;-76
2021/03/19 10:30:59;;;;;;;40.72;18.65;;;;;;;8.12;48.06;100440.69;4847735;28;97756;-73
2021/03/19 10:33:50;;;;;;;29.15;16.63;;;;;;;8.05;46.46;100438.25;4865444;28;96867;-73
2021/03/19 10:36:19;;;;;;;24.23;15.60;;;;;;;7.80;46.53;100441.38;4853078;28;101544;-75
2021/03/19 10:38:49;;;;;;;33.50;16.35;;;;;;;7.81;46.88;100442.25;4867929;28;97510;-74
2021/03/19 10:41:32;;;;;;;31.80;16.10;;;;;;;7.74;46.61;100446.75;4852617;28;97032;-74
2021/03/19 10:44:14;;;;;;;33.83;17.02;;;;;;;7.79;47.16;100437.03;4850767;28;97289;-74
2021/03/19 10:46:48;;;;;;;36.50;19.45;;;;;;;7.95;48.03;100442.81;4867379;28;98541;-75
2021/03/19 10:49:18;;;;;;;41.05;18.95;;;;;;;8.09;48.20;100439.91;4833926;28;101335;-75
2021/03/19 10:51:50;;;;;;;37.10;22.40;;;;;;;7.95;49.49;100442.81;4851560;28;96787;-74
2021/03/19 10:54:35;;;;;;;;;;;;;;;7.90;50.15;100444.66;4832492;28;97335;-76
2021/03/19 10:57:03;;;;;;;31.73;19.17;;;;;;;8.07;49.58;100442.53;4852082;28;101486;-74
2021/03/19 10:59:33;;;;;;;39.30;20.25;;;;;;;8.16;49.59;100449.31;4864555;28;98040;-75
2021/03/19 11:02:11;;;;;;;34.67;20.52;;;;;;;8.18;49.11;100438.84;4852265;28;96849;-74
2021/03/19 11:04:39;;;;;;;29.63;18.42;;;;;;;8.18;47.84;100444.06;4887975;28;97348;-76
2021/03/19 11:07:26;;;;;;;26.05;16.75;;;;;;;8.32;48.19;100450.72;4849388;28;101216;-74
2021/03/19 11:10:11;;;;;;;32.20;15.73;;;;;;;8.44;47.05;100443.53;4866320;28;98611;-75
2021/03/19 11:12:45;;;;;;;25.15;12.48;;;;;;;8.50;45.24;100443.38;4849804;28;97445;-75
2021/03/19 11:15:28;;;;;;;23.85;14.43;;;;;;;8.54;45.99;100445.00;4889234;28;97197;-75
2021/03/19 11:18:29;;;;;;;27.35;15.00;;;;;;;8.54;45.95;100448.47;4854246;28;101804;-74
2021/03/19 11:20:57;;;;;;;27.45;14.90;;;;;;;8.59;46.29;100445.75;4854491;28;101151;-74
2021/03/19 11:23:29;;;;;;;28.83;12.77;;;;;;;8.63;46.00;100439.56;4858598;28;97230;-76
2021/03/19 11:25:55;;;;;;;27.33;13.93;;;;;;;8.80;45.13;100436.53;4854724;28;96789;-74
2021/03/19 11:28:28;;;;;;;21.98;12.75;;;;;;;8.63;45.52;100444.78;4837801;28;101018;-74
2021/03/19 11:30:54;;;;;;;16.50;10.80;;;;;;;8.35;43.64;100440.19;4849446;28;101779;-75
2021/03/19 11:33:20;;;;;;;16.48;8.90;;;;;;;8.28;42.59;100441.19;4862681;28;96880;-75
2021/03/19 11:36:09;;;;;;;17.65;10.68;;;;;;;8.06;43.58;100426.91;4838912;28;98635;-74
2021/03/19 11:38:38;;;;;;;41.20;11.15;;;;;;;7.82;44.22;100433.50;4846118;28;101655;-77
2021/03/19 11:41:31;;;;;;;21.73;8.73;;;;;;;7.81;43.34;100427.41;4862915;28;101741;-76
2021/03/19 11:43:57;;;;;;;13.00;7.22;;;;;;;7.77;43.33;100428.38;4855551;28;97082;-76
2021/03/19 11:46:28;;;;;;;10.10;6.57;;;;;;;7.70;43.06;100421.53;4870739;28;97354;-74